Terminal Aerodrome Forecast
Issued by NWS Austin/San Antonio, TX

Home | Current Version | Previous Version | Text Only | Print | Product List | Glossary On
Versions: 1 2 3 4 5 6 7 8 9 10 11 12 13 14 15 16 17 18 19 20 21 22 23 24 25 26 27 28 29 30 31 32 33 34 35
936
FTUS44 KEWX 281733
TAFAUS
TAF
KAUS 281733Z 2818/2924 17009KT P6SM BKN025
     FM281900 16009KT P6SM BKN035
     FM290300 13007KT P6SM OVC015
     FM290800 14004KT 6SM BR OVC007
     FM291100 14003KT 2SM BR OVC003
     FM291500 14008KT P6SM OVC012
     FM291900 14010KT P6SM BKN040=

USA.gov is the U.S. government's official web portal to all federal, state and local government web resources and services.